sensor_id;sensor_type;location;lat;lon;timestamp;temperature;humidity
2657;DHT22;1338;48.176;11.792;2023-03-07T00:02:15;1.70;99.90
2657;DHT22;1338;48.176;11.792;2023-03-07T00:04:45;1.70;99.90
2657;DHT22;1338;48.176;11.792;2023-03-07T00:07:14;1.70;99.90
2657;DHT22;1338;48.176;11.792;2023-03-07T00:09:42;1.60;99.90
2657;DHT22;1338;48.176;11.792;2023-03-07T00:12:10;1.70;99.90
2657;DHT22;1338;48.176;11.792;2023-03-07T00:14:38;1.50;99.90
2657;DHT22;1338;48.176;11.792;2023-03-07T00:17:07;1.60;99.90
2657;DHT22;1338;48.176;11.792;2023-03-07T00:19:35;1.50;99.90
2657;DHT22;1338;48.176;11.792;2023-03-07T00:22:04;1.50;99.90
2657;DHT22;1338;48.176;11.792;2023-03-07T00:24:33;1.50;99.90
2657;DHT22;1338;48.176;11.792;2023-03-07T00:27:01;1.60;99.90
2657;DHT22;1338;48.176;11.792;2023-03-07T00:29:29;1.50;99.90
2657;DHT22;1338;48.176;11.792;2023-03-07T00:31:57;1.50;99.90
2657;DHT22;1338;48.176;11.792;2023-03-07T00:34:25;1.60;99.90
2657;DHT22;1338;48.176;11.792;2023-03-07T00:36:53;1.60;99.90
2657;DHT22;1338;48.176;11.792;2023-03-07T00:39:22;1.60;99.90
2657;DHT22;1338;48.176;11.792;2023-03-07T00:41:51;1.60;99.90
2657;DHT22;1338;48.176;11.792;2023-03-07T00:44:19;1.60;99.90
2657;DHT22;1338;48.176;11.792;2023-03-07T00:46:48;1.50;99.90
2657;DHT22;1338;48.176;11.792;2023-03-07T00:49:16;1.60;99.90
2657;DHT22;1338;48.176;11.792;2023-03-07T00:51:46;1.60;99.90
2657;DHT22;1338;48.176;11.792;2023-03-07T00:54:14;1.60;99.90
2657;DHT22;1338;48.176;11.792;2023-03-07T00:56:44;1.60;99.90
2657;DHT22;1338;48.176;11.792;2023-03-07T00:59:13;1.60;99.90
2657;DHT22;1338;48.176;11.792;2023-03-07T01:01:41;1.60;99.90
2657;DHT22;1338;48.176;11.792;2023-03-07T01:04:09;1.60;99.90
2657;DHT22;1338;48.176;11.792;2023-03-07T01:06:38;1.60;99.90
2657;DHT22;1338;48.176;11.792;2023-03-07T01:09:08;1.60;99.90
2657;DHT22;1338;48.176;11.792;2023-03-07T01:11:36;1.50;99.90
2657;DHT22;1338;48.176;11.792;2023-03-07T01:14:08;1.50;99.90
2657;DHT22;1338;48.176;11.792;2023-03-07T01:16:37;1.50;99.90
2657;DHT22;1338;48.176;11.792;2023-03-07T01:19:07;1.50;99.90
2657;DHT22;1338;48.176;11.792;2023-03-07T01:21:41;1.50;99.90
2657;DHT22;1338;48.176;11.792;2023-03-07T01:24:12;1.50;99.90
2657;DHT22;1338;48.176;11.792;2023-03-07T01:26:41;1.40;99.90
2657;DHT22;1338;48.176;11.792;2023-03-07T01:29:11;1.40;99.90
2657;DHT22;1338;48.176;11.792;2023-03-07T01:31:39;1.40;99.90
2657;DHT22;1338;48.176;11.792;2023-03-07T01:34:08;1.30;99.90
2657;DHT22;1338;48.176;11.792;2023-03-07T01:36:36;1.40;99.90
2657;DHT22;1338;48.176;11.792;2023-03-07T01:39:08;1.40;99.90
2657;DHT22;1338;48.176;11.792;2023-03-07T01:41:43;1.30;99.90
2657;DHT22;1338;48.176;11.792;2023-03-07T01:44:16;1.30;99.90
2657;DHT22;1338;48.176;11.792;2023-03-07T01:46:47;1.30;99.90
2657;DHT22;1338;48.176;11.792;2023-03-07T01:49:28;1.30;99.90
2657;DHT22;1338;48.176;11.792;2023-03-07T01:52:03;1.30;99.90
2657;DHT22;1338;48.176;11.792;2023-03-07T01:54:36;1.30;99.90
2657;DHT22;1338;48.176;11.792;2023-03-07T01:57:05;1.30;99.90
2657;DHT22;1338;48.176;11.792;2023-03-07T01:59:39;1.30;99.90
2657;DHT22;1338;48.176;11.792;2023-03-07T02:02:11;1.30;99.90
2657;DHT22;1338;48.176;11.792;2023-03-07T02:04:46;1.30;99.90
2657;DHT22;1338;48.176;11.792;2023-03-07T02:07:17;1.30;99.90
2657;DHT22;1338;48.176;11.792;2023-03-07T02:09:48;1.40;99.90
2657;DHT22;1338;48.176;11.792;2023-03-07T02:12:17;1.40;99.90
2657;DHT22;1338;48.176;11.792;2023-03-07T02:14:50;1.60;99.90
2657;DHT22;1338;48.176;11.792;2023-03-07T02:17:19;1.80;99.90
2657;DHT22;1338;48.176;11.792;2023-03-07T02:19:57;1.90;99.90
2657;DHT22;1338;48.176;11.792;2023-03-07T02:22:31;2.10;96.90
2657;DHT22;1338;48.176;11.792;2023-03-07T02:25:02;2.10;91.80
2657;DHT22;1338;48.176;11.792;2023-03-07T02:27:36;2.10;90.80
2657;DHT22;1338;48.176;11.792;2023-03-07T02:30:07;2.20;86.40
2657;DHT22;1338;48.176;11.792;2023-03-07T02:32:36;2.20;82.10
2657;DHT22;1338;48.176;11.792;2023-03-07T02:35:12;2.20;72.20
2657;DHT22;1338;48.176;11.792;2023-03-07T02:37:43;2.20;73.30
2657;DHT22;1338;48.176;11.792;2023-03-07T02:40:15;2.10;74.60
2657;DHT22;1338;48.176;11.792;2023-03-07T02:42:48;2.20;66.80
2657;DHT22;1338;48.176;11.792;2023-03-07T02:45:18;2.20;71.90
2657;DHT22;1338;48.176;11.792;2023-03-07T02:47:46;2.20;67.50
2657;DHT22;1338;48.176;11.792;2023-03-07T02:50:17;2.20;64.30
2657;DHT22;1338;48.176;11.792;2023-03-07T02:52:49;2.20;61.00
2657;DHT22;1338;48.176;11.792;2023-03-07T02:55:17;2.10;64.10
2657;DHT22;1338;48.176;11.792;2023-03-07T02:57:53;2.20;60.40
2657;DHT22;1338;48.176;11.792;2023-03-07T03:00:22;2.10;60.80
2657;DHT22;1338;48.176;11.792;2023-03-07T03:02:50;2.10;59.80
2657;DHT22;1338;48.176;11.792;2023-03-07T03:05:20;2.10;58.40
2657;DHT22;1338;48.176;11.792;2023-03-07T03:07:50;2.10;56.20
2657;DHT22;1338;48.176;11.792;2023-03-07T03:10:19;2.10;65.10
2657;DHT22;1338;48.176;11.792;2023-03-07T03:12:47;2.10;55.10
2657;DHT22;1338;48.176;11.792;2023-03-07T03:15:17;2.20;50.00
2657;DHT22;1338;48.176;11.792;2023-03-07T03:17:45;2.20;49.30
2657;DHT22;1338;48.176;11.792;2023-03-07T03:20:13;2.20;46.00
2657;DHT22;1338;48.176;11.792;2023-03-07T03:22:42;2.20;43.70
2657;DHT22;1338;48.176;11.792;2023-03-07T03:25:12;2.20;43.10
2657;DHT22;1338;48.176;11.792;2023-03-07T03:27:42;2.20;44.90
2657;DHT22;1338;48.176;11.792;2023-03-07T03:30:12;2.30;43.30
2657;DHT22;1338;48.176;11.792;2023-03-07T03:32:42;2.20;43.20
2657;DHT22;1338;48.176;11.792;2023-03-07T03:35:13;2.20;39.30
2657;DHT22;1338;48.176;11.792;2023-03-07T03:37:42;2.20;38.40
2657;DHT22;1338;48.176;11.792;2023-03-07T03:40:11;2.20;36.20
2657;DHT22;1338;48.176;11.792;2023-03-07T03:42:44;2.30;33.40
2657;DHT22;1338;48.176;11.792;2023-03-07T03:45:14;2.30;29.30
2657;DHT22;1338;48.176;11.792;2023-03-07T03:47:44;2.30;30.70
2657;DHT22;1338;48.176;11.792;2023-03-07T03:50:14;2.20;33.00
2657;DHT22;1338;48.176;11.792;2023-03-07T03:52:43;2.20;31.80
2657;DHT22;1338;48.176;11.792;2023-03-07T03:55:12;2.20;29.60
2657;DHT22;1338;48.176;11.792;2023-03-07T03:57:40;2.20;28.70
2657;DHT22;1338;48.176;11.792;2023-03-07T04:00:09;2.30;25.80
2657;DHT22;1338;48.176;11.792;2023-03-07T04:02:40;2.30;24.10
2657;DHT22;1338;48.176;11.792;2023-03-07T04:05:14;2.30;24.20
2657;DHT22;1338;48.176;11.792;2023-03-07T04:07:42;2.40;23.10
2657;DHT22;1338;48.176;11.792;2023-03-07T04:10:11;2.40;20.10
2657;DHT22;1338;48.176;11.792;2023-03-07T04:12:39;2.30;20.70
2657;DHT22;1338;48.176;11.792;2023-03-07T04:15:08;2.30;19.60
2657;DHT22;1338;48.176;11.792;2023-03-07T04:17:38;2.40;16.50
2657;DHT22;1338;48.176;11.792;2023-03-07T04:20:07;2.40;15.70
2657;DHT22;1338;48.176;11.792;2023-03-07T04:22:42;2.30;19.50
2657;DHT22;1338;48.176;11.792;2023-03-07T04:25:10;2.30;17.90
2657;DHT22;1338;48.176;11.792;2023-03-07T04:27:38;2.30;16.50
2657;DHT22;1338;48.176;11.792;2023-03-07T04:30:08;2.20;18.20
2657;DHT22;1338;48.176;11.792;2023-03-07T04:32:37;2.30;16.60
2657;DHT22;1338;48.176;11.792;2023-03-07T04:35:08;2.40;14.40
2657;DHT22;1338;48.176;11.792;2023-03-07T04:37:36;2.40;12.10
2657;DHT22;1338;48.176;11.792;2023-03-07T04:40:07;2.30;11.80
2657;DHT22;1338;48.176;11.792;2023-03-07T04:42:35;2.30;14.50
2657;DHT22;1338;48.176;11.792;2023-03-07T04:45:04;2.30;17.00
2657;DHT22;1338;48.176;11.792;2023-03-07T04:47:33;2.20;14.30
2657;DHT22;1338;48.176;11.792;2023-03-07T04:50:01;2.10;14.80
2657;DHT22;1338;48.176;11.792;2023-03-07T04:52:31;2.10;14.70
2657;DHT22;1338;48.176;11.792;2023-03-07T04:54:59;2.10;15.50
2657;DHT22;1338;48.176;11.792;2023-03-07T04:57:29;2.10;20.20
2657;DHT22;1338;48.176;11.792;2023-03-07T04:59:57;2.00;14.40
2657;DHT22;1338;48.176;11.792;2023-03-07T05:02:26;2.00;14.30
2657;DHT22;1338;48.176;11.792;2023-03-07T05:04:55;2.00;14.80
2657;DHT22;1338;48.176;11.792;2023-03-07T05:07:23;2.00;14.80
2657;DHT22;1338;48.176;11.792;2023-03-07T05:09:52;2.10;14.30
2657;DHT22;1338;48.176;11.792;2023-03-07T05:12:20;2.00;11.90
2657;DHT22;1338;48.176;11.792;2023-03-07T05:14:50;2.10;9.10
2657;DHT22;1338;48.176;11.792;2023-03-07T05:17:19;2.10;8.20
2657;DHT22;1338;48.176;11.792;2023-03-07T05:19:47;2.00;8.80
2657;DHT22;1338;48.176;11.792;2023-03-07T05:22:15;1.90;9.30
2657;DHT22;1338;48.176;11.792;2023-03-07T05:24:43;1.80;10.10
2657;DHT22;1338;48.176;11.792;2023-03-07T05:27:11;2.00;15.80
2657;DHT22;1338;48.176;11.792;2023-03-07T05:29:39;2.00;9.30
2657;DHT22;1338;48.176;11.792;2023-03-07T05:32:09;2.00;7.60
2657;DHT22;1338;48.176;11.792;2023-03-07T05:34:38;2.00;7.30
2657;DHT22;1338;48.176;11.792;2023-03-07T05:37:07;1.80;8.90
2657;DHT22;1338;48.176;11.792;2023-03-07T05:39:35;1.80;10.70
2657;DHT22;1338;48.176;11.792;2023-03-07T05:42:04;1.80;12.70
2657;DHT22;1338;48.176;11.792;2023-03-07T05:44:34;1.70;14.90
2657;DHT22;1338;48.176;11.792;2023-03-07T05:47:03;1.70;17.00
2657;DHT22;1338;48.176;11.792;2023-03-07T05:49:33;1.70;18.00
2657;DHT22;1338;48.176;11.792;2023-03-07T05:52:02;1.60;20.20
2657;DHT22;1338;48.176;11.792;2023-03-07T05:54:30;1.60;21.40
2657;DHT22;1338;48.176;11.792;2023-03-07T05:56:58;1.70;21.20
2657;DHT22;1338;48.176;11.792;2023-03-07T05:59:26;1.80;21.80
2657;DHT22;1338;48.176;11.792;2023-03-07T06:01:54;1.70;22.30
2657;DHT22;1338;48.176;11.792;2023-03-07T06:04:22;1.60;24.00
2657;DHT22;1338;48.176;11.792;2023-03-07T06:06:52;1.50;26.90
2657;DHT22;1338;48.176;11.792;2023-03-07T06:09:20;1.60;26.90
2657;DHT22;1338;48.176;11.792;2023-03-07T06:11:50;1.60;24.20
2657;DHT22;1338;48.176;11.792;2023-03-07T06:14:18;1.60;24.20
2657;DHT22;1338;48.176;11.792;2023-03-07T06:16:46;1.60;22.20
2657;DHT22;1338;48.176;11.792;2023-03-07T06:19:14;1.60;22.50
2657;DHT22;1338;48.176;11.792;2023-03-07T06:21:43;1.60;22.90
2657;DHT22;1338;48.176;11.792;2023-03-07T06:24:12;1.60;23.30
2657;DHT22;1338;48.176;11.792;2023-03-07T06:26:42;1.50;25.20
2657;DHT22;1338;48.176;11.792;2023-03-07T06:29:10;1.50;26.10
2657;DHT22;1338;48.176;11.792;2023-03-07T06:31:38;1.70;24.90
2657;DHT22;1338;48.176;11.792;2023-03-07T06:34:07;1.60;26.40
2657;DHT22;1338;48.176;11.792;2023-03-07T06:36:35;1.60;28.90
2657;DHT22;1338;48.176;11.792;2023-03-07T06:39:03;1.60;30.10
2657;DHT22;1338;48.176;11.792;2023-03-07T06:41:35;1.70;27.60
2657;DHT22;1338;48.176;11.792;2023-03-07T06:44:04;1.70;29.60
2657;DHT22;1338;48.176;11.792;2023-03-07T06:46:32;1.80;28.20
2657;DHT22;1338;48.176;11.792;2023-03-07T06:49:06;1.90;29.90
2657;DHT22;1338;48.176;11.792;2023-03-07T06:51:34;2.00;25.40
2657;DHT22;1338;48.176;11.792;2023-03-07T06:54:04;2.00;25.70
2657;DHT22;1338;48.176;11.792;2023-03-07T06:56:34;2.00;26.30
2657;DHT22;1338;48.176;11.792;2023-03-07T06:59:02;2.10;28.70
2657;DHT22;1338;48.176;11.792;2023-03-07T07:01:31;2.20;26.40
2657;DHT22;1338;48.176;11.792;2023-03-07T07:04:02;2.30;27.40
2657;DHT22;1338;48.176;11.792;2023-03-07T07:06:30;2.30;24.80
2657;DHT22;1338;48.176;11.792;2023-03-07T07:08:58;2.30;27.40
2657;DHT22;1338;48.176;11.792;2023-03-07T07:11:31;2.30;19.80
2657;DHT22;1338;48.176;11.792;2023-03-07T07:14:03;2.40;21.00
2657;DHT22;1338;48.176;11.792;2023-03-07T07:16:31;2.40;18.30
2657;DHT22;1338;48.176;11.792;2023-03-07T07:19:03;2.50;23.30
2657;DHT22;1338;48.176;11.792;2023-03-07T07:21:31;2.50;22.80
2657;DHT22;1338;48.176;11.792;2023-03-07T07:23:59;2.50;22.40
2657;DHT22;1338;48.176;11.792;2023-03-07T07:26:28;2.60;21.90
2657;DHT22;1338;48.176;11.792;2023-03-07T07:28:58;2.70;23.50
2657;DHT22;1338;48.176;11.792;2023-03-07T07:31:28;2.70;20.50
2657;DHT22;1338;48.176;11.792;2023-03-07T07:33:56;2.70;20.30
2657;DHT22;1338;48.176;11.792;2023-03-07T07:36:26;2.80;20.80
2657;DHT22;1338;48.176;11.792;2023-03-07T07:38:54;2.80;25.30
2657;DHT22;1338;48.176;11.792;2023-03-07T07:41:23;2.80;15.10
2657;DHT22;1338;48.176;11.792;2023-03-07T07:43:53;2.80;17.50
2657;DHT22;1338;48.176;11.792;2023-03-07T07:46:32;2.90;15.00
2657;DHT22;1338;48.176;11.792;2023-03-07T07:49:01;3.00;15.10
2657;DHT22;1338;48.176;11.792;2023-03-07T07:51:29;3.00;11.80
2657;DHT22;1338;48.176;11.792;2023-03-07T07:53:57;3.00;5.30
2657;DHT22;1338;48.176;11.792;2023-03-07T07:56:26;3.10;7.00
2657;DHT22;1338;48.176;11.792;2023-03-07T07:58:54;3.20;7.60
2657;DHT22;1338;48.176;11.792;2023-03-07T08:01:23;3.20;2.50
2657;DHT22;1338;48.176;11.792;2023-03-07T08:03:53;3.20;1.00
2657;DHT22;1338;48.176;11.792;2023-03-07T08:06:23;3.30;1.00
2657;DHT22;1338;48.176;11.792;2023-03-07T08:08:52;3.30;1.00
2657;DHT22;1338;48.176;11.792;2023-03-07T08:11:22;3.40;1.00
2657;DHT22;1338;48.176;11.792;2023-03-07T08:13:51;3.60;1.00
2657;DHT22;1338;48.176;11.792;2023-03-07T08:16:20;3.70;1.00
2657;DHT22;1338;48.176;11.792;2023-03-07T08:18:51;3.60;1.00
2657;DHT22;1338;48.176;11.792;2023-03-07T08:21:23;3.70;1.00
2657;DHT22;1338;48.176;11.792;2023-03-07T08:23:52;3.90;1.00
2657;DHT22;1338;48.176;11.792;2023-03-07T08:26:21;3.80;1.00
2657;DHT22;1338;48.176;11.792;2023-03-07T08:28:49;4.00;1.00
2657;DHT22;1338;48.176;11.792;2023-03-07T08:31:19;3.90;1.00
2657;DHT22;1338;48.176;11.792;2023-03-07T08:33:50;4.00;1.00
2657;DHT22;1338;48.176;11.792;2023-03-07T08:36:19;3.90;1.00
2657;DHT22;1338;48.176;11.792;2023-03-07T08:38:49;4.00;1.00
2657;DHT22;1338;48.176;11.792;2023-03-07T08:41:19;4.40;1.00
2657;DHT22;1338;48.176;11.792;2023-03-07T08:43:47;4.50;1.00
2657;DHT22;1338;48.176;11.792;2023-03-07T08:46:15;4.40;1.00
2657;DHT22;1338;48.176;11.792;2023-03-07T08:48:44;4.20;1.00
2657;DHT22;1338;48.176;11.792;2023-03-07T08:51:13;4.30;1.00
2657;DHT22;1338;48.176;11.792;2023-03-07T08:53:43;4.50;1.00
2657;DHT22;1338;48.176;11.792;2023-03-07T08:56:14;4.40;1.00
2657;DHT22;1338;48.176;11.792;2023-03-07T08:58:42;4.40;1.00
2657;DHT22;1338;48.176;11.792;2023-03-07T09:01:11;4.30;1.00
2657;DHT22;1338;48.176;11.792;2023-03-07T09:03:39;4.30;1.00
2657;DHT22;1338;48.176;11.792;2023-03-07T09:06:15;4.60;1.00
2657;DHT22;1338;48.176;11.792;2023-03-07T09:08:43;4.50;1.00
2657;DHT22;1338;48.176;11.792;2023-03-07T09:11:13;4.50;1.00
2657;DHT22;1338;48.176;11.792;2023-03-07T09:13:42;4.90;1.00
2657;DHT22;1338;48.176;11.792;2023-03-07T09:16:19;4.80;1.00
2657;DHT22;1338;48.176;11.792;2023-03-07T09:18:47;4.90;1.00
2657;DHT22;1338;48.176;11.792;2023-03-07T09:21:15;5.10;1.00
2657;DHT22;1338;48.176;11.792;2023-03-07T09:23:44;5.10;1.00
2657;DHT22;1338;48.176;11.792;2023-03-07T09:26:14;5.00;1.00
2657;DHT22;1338;48.176;11.792;2023-03-07T09:28:42;5.20;1.00
2657;DHT22;1338;48.176;11.792;2023-03-07T09:31:12;5.30;1.00
2657;DHT22;1338;48.176;11.792;2023-03-07T09:33:41;5.40;1.00
2657;DHT22;1338;48.176;11.792;2023-03-07T09:36:13;5.30;1.00
2657;DHT22;1338;48.176;11.792;2023-03-07T09:38:41;5.30;1.00
2657;DHT22;1338;48.176;11.792;2023-03-07T09:41:27;5.60;1.00
2657;DHT22;1338;48.176;11.792;2023-03-07T09:44:04;5.50;1.00
2657;DHT22;1338;48.176;11.792;2023-03-07T09:47:02;5.20;1.00
2657;DHT22;1338;48.176;11.792;2023-03-07T09:49:41;5.30;1.00
2657;DHT22;1338;48.176;11.792;2023-03-07T09:52:14;5.50;1.00
2657;DHT22;1338;48.176;11.792;2023-03-07T09:54:45;6.00;1.00
2657;DHT22;1338;48.176;11.792;2023-03-07T09:57:22;6.50;1.00
2657;DHT22;1338;48.176;11.792;2023-03-07T09:59:54;6.00;1.00
2657;DHT22;1338;48.176;11.792;2023-03-07T10:02:27;6.30;1.00
2657;DHT22;1338;48.176;11.792;2023-03-07T10:05:03;6.20;1.00
2657;DHT22;1338;48.176;11.792;2023-03-07T10:07:31;6.10;1.00
2657;DHT22;1338;48.176;11.792;2023-03-07T10:10:05;6.20;1.00
2657;DHT22;1338;48.176;11.792;2023-03-07T10:12:53;6.20;1.00
2657;DHT22;1338;48.176;11.792;2023-03-07T10:15:38;6.30;1.00
2657;DHT22;1338;48.176;11.792;2023-03-07T10:18:20;6.40;1.00
2657;DHT22;1338;48.176;11.792;2023-03-07T10:20:57;6.10;1.00
2657;DHT22;1338;48.176;11.792;2023-03-07T10:23:47;5.80;1.00
2657;DHT22;1338;48.176;11.792;2023-03-07T10:26:25;6.30;1.00
2657;DHT22;1338;48.176;11.792;2023-03-07T10:29:00;6.10;1.00
2657;DHT22;1338;48.176;11.792;2023-03-07T10:31:32;6.50;1.00
2657;DHT22;1338;48.176;11.792;2023-03-07T10:34:07;7.00;1.00
2657;DHT22;1338;48.176;11.792;2023-03-07T10:36:55;6.90;1.00
2657;DHT22;1338;48.176;11.792;2023-03-07T10:39:39;7.00;1.00
2657;DHT22;1338;48.176;11.792;2023-03-07T10:42:10;7.00;1.00
2657;DHT22;1338;48.176;11.792;2023-03-07T10:44:40;6.30;1.00
2657;DHT22;1338;48.176;11.792;2023-03-07T10:47:18;7.00;1.00
2657;DHT22;1338;48.176;11.792;2023-03-07T10:49:47;7.10;1.00
2657;DHT22;1338;48.176;11.792;2023-03-07T10:52:27;6.90;1.00
2657;DHT22;1338;48.176;11.792;2023-03-07T10:55:31;7.10;1.00
2657;DHT22;1338;48.176;11.792;2023-03-07T10:58:18;7.40;1.00
2657;DHT22;1338;48.176;11.792;2023-03-07T11:01:00;7.10;1.00
2657;DHT22;1338;48.176;11.792;2023-03-07T11:03:31;7.30;1.00
2657;DHT22;1338;48.176;11.792;2023-03-07T11:06:31;7.70;1.00
2657;DHT22;1338;48.176;11.792;2023-03-07T11:09:17;7.80;1.00
2657;DHT22;1338;48.176;11.792;2023-03-07T11:11:48;7.80;1.00
2657;DHT22;1338;48.176;11.792;2023-03-07T11:14:16;7.40;1.00
2657;DHT22;1338;48.176;11.792;2023-03-07T11:16:53;7.40;1.00
2657;DHT22;1338;48.176;11.792;2023-03-07T11:19:33;6.90;1.00
2657;DHT22;1338;48.176;11.792;2023-03-07T11:22:03;7.00;1.00
2657;DHT22;1338;48.176;11.792;2023-03-07T11:24:36;7.20;1.00
2657;DHT22;1338;48.176;11.792;2023-03-07T11:27:05;7.70;1.00
2657;DHT22;1338;48.176;11.792;2023-03-07T11:29:34;7.60;1.00
2657;DHT22;1338;48.176;11.792;2023-03-07T11:32:11;8.00;1.00
2657;DHT22;1338;48.176;11.792;2023-03-07T11:34:45;8.20;1.00
2657;DHT22;1338;48.176;11.792;2023-03-07T11:37:25;7.40;1.00
2657;DHT22;1338;48.176;11.792;2023-03-07T11:40:20;7.60;1.00
2657;DHT22;1338;48.176;11.792;2023-03-07T11:42:56;8.20;1.00
2657;DHT22;1338;48.176;11.792;2023-03-07T11:45:30;8.00;1.00
2657;DHT22;1338;48.176;11.792;2023-03-07T11:48:13;8.00;1.00
2657;DHT22;1338;48.176;11.792;2023-03-07T11:50:50;7.70;1.00
2657;DHT22;1338;48.176;11.792;2023-03-07T11:53:32;7.80;1.00
2657;DHT22;1338;48.176;11.792;2023-03-07T11:56:18;8.00;1.00
2657;DHT22;1338;48.176;11.792;2023-03-07T12:01:57;8.40;1.00
2657;DHT22;1338;48.176;11.792;2023-03-07T12:07:57;8.20;1.00
2657;DHT22;1338;48.176;11.792;2023-03-07T12:10:37;8.60;1.00
2657;DHT22;1338;48.176;11.792;2023-03-07T12:13:15;8.90;1.00
2657;DHT22;1338;48.176;11.792;2023-03-07T12:15:52;8.70;1.00
2657;DHT22;1338;48.176;11.792;2023-03-07T12:18:41;7.90;1.00
2657;DHT22;1338;48.176;11.792;2023-03-07T12:21:21;8.20;1.00
2657;DHT22;1338;48.176;11.792;2023-03-07T12:23:58;8.00;1.00
2657;DHT22;1338;48.176;11.792;2023-03-07T12:26:32;8.10;1.00
2657;DHT22;1338;48.176;11.792;2023-03-07T12:29:09;8.60;1.00
2657;DHT22;1338;48.176;11.792;2023-03-07T12:31:44;8.20;1.00
2657;DHT22;1338;48.176;11.792;2023-03-07T12:34:19;8.90;1.00
2657;DHT22;1338;48.176;11.792;2023-03-07T12:36:57;8.00;1.00
2657;DHT22;1338;48.176;11.792;2023-03-07T12:39:37;7.90;1.00
2657;DHT22;1338;48.176;11.792;2023-03-07T12:42:16;8.70;1.00
2657;DHT22;1338;48.176;11.792;2023-03-07T12:44:52;8.20;1.00
2657;DHT22;1338;48.176;11.792;2023-03-07T12:47:28;7.90;1.00
2657;DHT22;1338;48.176;11.792;2023-03-07T12:50:02;8.00;1.00
2657;DHT22;1338;48.176;11.792;2023-03-07T12:52:42;8.10;1.00
2657;DHT22;1338;48.176;11.792;2023-03-07T12:55:29;8.60;1.00
2657;DHT22;1338;48.176;11.792;2023-03-07T12:58:05;9.10;1.00
2657;DHT22;1338;48.176;11.792;2023-03-07T13:00:40;8.50;1.00
2657;DHT22;1338;48.176;11.792;2023-03-07T13:03:17;8.80;1.00
2657;DHT22;1338;48.176;11.792;2023-03-07T13:05:47;8.70;1.00
2657;DHT22;1338;48.176;11.792;2023-03-07T13:08:21;8.50;1.00
2657;DHT22;1338;48.176;11.792;2023-03-07T13:10:53;9.00;1.00
2657;DHT22;1338;48.176;11.792;2023-03-07T13:13:55;8.80;1.00
2657;DHT22;1338;48.176;11.792;2023-03-07T13:16:39;9.00;1.00
2657;DHT22;1338;48.176;11.792;2023-03-07T13:19:47;9.30;1.00
2657;DHT22;1338;48.176;11.792;2023-03-07T13:22:56;9.10;1.00
2657;DHT22;1338;48.176;11.792;2023-03-07T13:28:48;8.50;1.00
2657;DHT22;1338;48.176;11.792;2023-03-07T13:31:26;9.00;1.00
2657;DHT22;1338;48.176;11.792;2023-03-07T13:34:43;9.20;1.00
2657;DHT22;1338;48.176;11.792;2023-03-07T13:37:52;9.10;1.00
2657;DHT22;1338;48.176;11.792;2023-03-07T13:49:34;8.00;1.00
2657;DHT22;1338;48.176;11.792;2023-03-07T13:52:32;8.60;1.00
2657;DHT22;1338;48.176;11.792;2023-03-07T13:55:21;8.80;1.00
2657;DHT22;1338;48.176;11.792;2023-03-07T13:57:56;8.80;1.00
2657;DHT22;1338;48.176;11.792;2023-03-07T14:00:36;8.90;1.00
2657;DHT22;1338;48.176;11.792;2023-03-07T14:03:21;9.00;1.00
2657;DHT22;1338;48.176;11.792;2023-03-07T14:05:55;9.20;1.00
2657;DHT22;1338;48.176;11.792;2023-03-07T14:08:28;8.40;1.00
2657;DHT22;1338;48.176;11.792;2023-03-07T14:10:59;9.10;1.00
2657;DHT22;1338;48.176;11.792;2023-03-07T14:13:45;8.50;1.00
2657;DHT22;1338;48.176;11.792;2023-03-07T14:16:36;8.70;1.00
2657;DHT22;1338;48.176;11.792;2023-03-07T14:19:21;8.40;1.00
2657;DHT22;1338;48.176;11.792;2023-03-07T14:21:59;8.70;1.00
2657;DHT22;1338;48.176;11.792;2023-03-07T14:24:49;8.50;1.00
2657;DHT22;1338;48.176;11.792;2023-03-07T14:27:20;8.20;1.00
2657;DHT22;1338;48.176;11.792;2023-03-07T14:29:50;8.60;1.00
2657;DHT22;1338;48.176;11.792;2023-03-07T14:32:25;8.40;1.00
2657;DHT22;1338;48.176;11.792;2023-03-07T14:34:57;8.20;1.00
2657;DHT22;1338;48.176;11.792;2023-03-07T14:37:29;8.30;1.00
2657;DHT22;1338;48.176;11.792;2023-03-07T14:40:28;8.30;1.00
2657;DHT22;1338;48.176;11.792;2023-03-07T14:43:11;8.60;1.00
2657;DHT22;1338;48.176;11.792;2023-03-07T14:45:47;8.20;1.00
2657;DHT22;1338;48.176;11.792;2023-03-07T14:48:37;8.30;1.00
2657;DHT22;1338;48.176;11.792;2023-03-07T14:51:15;8.40;1.00
2657;DHT22;1338;48.176;11.792;2023-03-07T14:53:48;8.10;1.00
2657;DHT22;1338;48.176;11.792;2023-03-07T14:56:20;8.10;1.00
2657;DHT22;1338;48.176;11.792;2023-03-07T14:58:51;8.00;1.00
2657;DHT22;1338;48.176;11.792;2023-03-07T15:01:21;8.10;1.00
2657;DHT22;1338;48.176;11.792;2023-03-07T15:03:52;8.10;1.00
2657;DHT22;1338;48.176;11.792;2023-03-07T15:06:25;7.90;1.00
2657;DHT22;1338;48.176;11.792;2023-03-07T15:08:56;8.10;1.00
2657;DHT22;1338;48.176;11.792;2023-03-07T15:11:29;8.60;1.00
2657;DHT22;1338;48.176;11.792;2023-03-07T15:14:02;9.20;1.00
2657;DHT22;1338;48.176;11.792;2023-03-07T15:16:35;9.10;1.00
2657;DHT22;1338;48.176;11.792;2023-03-07T15:19:09;9.40;1.00
2657;DHT22;1338;48.176;11.792;2023-03-07T15:21:44;8.90;1.00
2657;DHT22;1338;48.176;11.792;2023-03-07T15:24:17;9.10;1.00
2657;DHT22;1338;48.176;11.792;2023-03-07T15:26:50;8.70;1.00
2657;DHT22;1338;48.176;11.792;2023-03-07T15:29:22;8.70;1.00
2657;DHT22;1338;48.176;11.792;2023-03-07T15:31:54;9.10;1.00
2657;DHT22;1338;48.176;11.792;2023-03-07T15:34:26;8.70;1.00
2657;DHT22;1338;48.176;11.792;2023-03-07T15:37:19;8.40;1.00
2657;DHT22;1338;48.176;11.792;2023-03-07T15:39:55;8.40;1.00
2657;DHT22;1338;48.176;11.792;2023-03-07T15:42:24;8.50;1.00
2657;DHT22;1338;48.176;11.792;2023-03-07T15:44:54;8.60;1.00
2657;DHT22;1338;48.176;11.792;2023-03-07T15:47:24;8.50;1.00
2657;DHT22;1338;48.176;11.792;2023-03-07T15:49:56;8.20;1.00
2657;DHT22;1338;48.176;11.792;2023-03-07T15:52:30;8.30;1.00
2657;DHT22;1338;48.176;11.792;2023-03-07T15:55:02;8.30;1.00
2657;DHT22;1338;48.176;11.792;2023-03-07T15:57:38;8.00;1.00
2657;DHT22;1338;48.176;11.792;2023-03-07T16:00:15;8.30;1.00
2657;DHT22;1338;48.176;11.792;2023-03-07T16:02:46;8.20;1.00
2657;DHT22;1338;48.176;11.792;2023-03-07T16:05:31;7.80;1.00
2657;DHT22;1338;48.176;11.792;2023-03-07T16:08:13;7.80;1.00
2657;DHT22;1338;48.176;11.792;2023-03-07T16:10:47;7.60;1.00
2657;DHT22;1338;48.176;11.792;2023-03-07T16:13:19;7.10;1.00
2657;DHT22;1338;48.176;11.792;2023-03-07T16:16:00;7.10;1.00
2657;DHT22;1338;48.176;11.792;2023-03-07T16:18:31;6.80;1.00
2657;DHT22;1338;48.176;11.792;2023-03-07T16:21:01;6.80;1.00
2657;DHT22;1338;48.176;11.792;2023-03-07T16:23:36;6.70;1.00
2657;DHT22;1338;48.176;11.792;2023-03-07T16:26:12;6.60;1.00
2657;DHT22;1338;48.176;11.792;2023-03-07T16:28:43;6.50;1.00
2657;DHT22;1338;48.176;11.792;2023-03-07T16:31:16;6.30;1.00
2657;DHT22;1338;48.176;11.792;2023-03-07T16:33:50;6.40;1.00
2657;DHT22;1338;48.176;11.792;2023-03-07T16:36:21;6.20;1.00
2657;DHT22;1338;48.176;11.792;2023-03-07T16:38:51;6.10;1.00
2657;DHT22;1338;48.176;11.792;2023-03-07T16:41:21;6.10;1.00
2657;DHT22;1338;48.176;11.792;2023-03-07T16:43:52;5.90;1.00
2657;DHT22;1338;48.176;11.792;2023-03-07T16:46:22;5.80;1.00
2657;DHT22;1338;48.176;11.792;2023-03-07T16:48:51;6.00;1.00
2657;DHT22;1338;48.176;11.792;2023-03-07T16:51:21;5.90;1.00
2657;DHT22;1338;48.176;11.792;2023-03-07T16:53:53;5.80;1.00
2657;DHT22;1338;48.176;11.792;2023-03-07T16:56:24;5.80;1.00
2657;DHT22;1338;48.176;11.792;2023-03-07T16:58:55;5.70;1.00
2657;DHT22;1338;48.176;11.792;2023-03-07T17:01:24;5.50;1.00
2657;DHT22;1338;48.176;11.792;2023-03-07T17:03:57;5.40;1.00
2657;DHT22;1338;48.176;11.792;2023-03-07T17:06:26;5.40;1.00